createdAt,value
2019-01-13T00:00:28.120Z,5.65
2019-01-13T00:01:33.528Z,5.74
2019-01-13T00:02:39.874Z,5.68
2019-01-13T00:03:45.798Z,5.63
2019-01-13T00:04:52.247Z,5.63
2019-01-13T00:05:58.404Z,5.65
2019-01-13T00:07:04.123Z,5.63
2019-01-13T00:08:10.850Z,5.44
2019-01-13T00:09:17.712Z,5.62
2019-01-13T00:10:24.037Z,5.62
2019-01-13T00:11:30.309Z,5.66
2019-01-13T00:12:36.682Z,5.73
2019-01-13T00:13:42.764Z,5.74
2019-01-13T00:14:48.545Z,5.70
2019-01-13T00:15:54.521Z,5.77
2019-01-13T00:17:00.880Z,5.79
2019-01-13T00:18:07.262Z,5.87
2019-01-13T00:19:13.629Z,5.75
2019-01-13T00:20:19.917Z,5.84
2019-01-13T00:21:25.901Z,5.86
2019-01-13T00:22:32.220Z,5.72
2019-01-13T00:23:38.544Z,5.68
2019-01-13T00:24:44.865Z,5.62
2019-01-13T00:25:51.188Z,5.55
2019-01-13T00:26:57.142Z,5.63
2019-01-13T00:28:03.112Z,5.58
2019-01-13T00:29:10.283Z,5.70
2019-01-13T00:30:19.439Z,5.80
2019-01-13T00:31:23.118Z,5.73
2019-01-13T00:32:29.119Z,5.66
2019-01-13T00:33:35.457Z,5.58
2019-01-13T00:34:41.800Z,5.63
2019-01-13T00:35:48.198Z,5.57
2019-01-13T00:36:54.569Z,5.62
2019-01-13T00:38:00.959Z,5.71
2019-01-13T00:39:06.654Z,5.61
2019-01-13T00:40:15.310Z,5.58
2019-01-13T00:41:21.617Z,5.50
2019-01-13T00:42:27.589Z,5.60
2019-01-13T00:43:33.625Z,5.72
2019-01-13T00:44:39.947Z,5.72
2019-01-13T00:45:46.319Z,5.74
2019-01-13T00:46:52.334Z,5.65
2019-01-13T00:47:58.415Z,5.68
2019-01-13T00:49:04.415Z,5.64
2019-01-13T00:50:11.537Z,5.68
2019-01-13T00:51:18.257Z,5.79
2019-01-13T00:52:24.554Z,5.71
2019-01-13T00:53:30.931Z,5.70
2019-01-13T00:54:37.243Z,5.56
2019-01-13T00:55:43.223Z,5.54
2019-01-13T00:56:49.545Z,5.72
2019-01-13T00:57:55.893Z,5.68
2019-01-13T00:59:02.146Z,5.78
2019-01-13T01:00:16.350Z,5.85
2019-01-13T01:01:22.476Z,5.71
2019-01-13T01:02:28.455Z,5.62
2019-01-13T01:03:34.818Z,5.66
2019-01-13T01:04:41.113Z,5.71
2019-01-13T01:05:47.403Z,5.76
2019-01-13T01:06:53.361Z,5.69
2019-01-13T01:07:59.542Z,5.84
2019-01-13T01:09:05.261Z,5.86
2019-01-13T01:10:11.497Z,5.85
2019-01-13T01:11:17.565Z,5.91
2019-01-13T01:12:23.909Z,5.90
2019-01-13T01:13:29.839Z,5.91
2019-01-13T01:14:36.175Z,5.79
2019-01-13T01:15:42.157Z,5.64
2019-01-13T01:16:48.480Z,5.71
2019-01-13T01:17:54.831Z,5.68
2019-01-13T01:19:00.963Z,5.72
2019-01-13T01:20:07.231Z,5.79
2019-01-13T01:21:13.587Z,5.81
2019-01-13T01:22:19.898Z,5.70
2019-01-13T01:23:26.923Z,5.82
2019-01-13T01:24:33.251Z,5.84
2019-01-13T01:25:39.609Z,5.85
2019-01-13T01:26:45.938Z,5.77
2019-01-13T01:27:52.274Z,5.73
2019-01-13T01:28:58.263Z,5.80
2019-01-13T01:30:03.902Z,5.76
2019-01-13T01:31:10.227Z,5.90
2019-01-13T01:32:16.540Z,5.72
2019-01-13T01:33:26.005Z,5.74
2019-01-13T01:34:31.528Z,5.77
2019-01-13T01:35:37.877Z,5.74
2019-01-13T01:36:44.188Z,5.77
2019-01-13T01:37:50.486Z,5.82
2019-01-13T01:38:56.823Z,5.87
2019-01-13T01:40:02.829Z,5.90
2019-01-13T01:41:09.209Z,5.97
2019-01-13T01:42:15.213Z,5.93
2019-01-13T01:43:21.514Z,5.94
2019-01-13T01:44:27.821Z,5.98
2019-01-13T01:45:33.819Z,5.96
2019-01-13T01:46:40.172Z,5.96
2019-01-13T01:47:46.255Z,5.92
2019-01-13T01:48:52.595Z,5.96
2019-01-13T01:49:58.581Z,5.96
2019-01-13T01:51:04.905Z,6.10
2019-01-13T01:52:11.193Z,6.13
2019-01-13T01:53:17.528Z,6.06
2019-01-13T01:54:23.911Z,6.10
2019-01-13T01:55:30.182Z,6.18
2019-01-13T01:56:36.485Z,6.09
2019-01-13T01:57:42.440Z,6.06
2019-01-13T01:58:48.739Z,6.06
2019-01-13T01:59:55.070Z,6.03
2019-01-13T02:01:01.487Z,5.99
2019-01-13T02:02:05.854Z,6.11
2019-01-13T02:03:12.203Z,6.24
2019-01-13T02:04:18.586Z,6.16
2019-01-13T02:05:25.162Z,6.25
2019-01-13T02:06:31.566Z,6.24
2019-01-13T02:07:37.188Z,6.24
2019-01-13T02:08:43.451Z,6.27
2019-01-13T02:09:49.813Z,6.20
2019-01-13T02:10:56.109Z,6.13
2019-01-13T02:12:02.093Z,6.11
2019-01-13T02:13:08.058Z,6.13
2019-01-13T02:14:14.427Z,6.23
2019-01-13T02:15:20.064Z,6.11
2019-01-13T02:16:26.348Z,5.93
2019-01-13T02:17:32.681Z,5.97
2019-01-13T02:18:38.333Z,6.05
2019-01-13T02:19:44.299Z,6.09
2019-01-13T02:20:50.617Z,6.06
2019-01-13T02:21:56.907Z,6.03
2019-01-13T02:23:03.232Z,6.15
2019-01-13T02:24:09.167Z,6.03
2019-01-13T02:25:15.552Z,6.01
2019-01-13T02:26:21.910Z,5.98
2019-01-13T02:27:28.253Z,6.06
2019-01-13T02:28:34.542Z,5.95
2019-01-13T02:29:40.890Z,5.95
2019-01-13T02:30:49.225Z,5.82
2019-01-13T02:31:53.611Z,5.91
2019-01-13T02:32:59.953Z,5.89
2019-01-13T02:34:05.565Z,5.94
2019-01-13T02:35:11.201Z,5.92
2019-01-13T02:36:17.551Z,5.90
2019-01-13T02:37:24.618Z,5.93
2019-01-13T02:38:31.427Z,5.95
2019-01-13T02:39:37.780Z,5.88
2019-01-13T02:40:44.095Z,5.87
2019-01-13T02:41:50.441Z,5.85
2019-01-13T02:42:56.741Z,5.76
2019-01-13T02:44:02.706Z,5.88
2019-01-13T02:45:09.040Z,5.96
2019-01-13T02:46:15.366Z,5.94
2019-01-13T02:47:21.681Z,5.80
2019-01-13T02:48:28.041Z,5.68
2019-01-13T02:49:34.388Z,5.66
2019-01-13T02:50:40.749Z,5.85
2019-01-13T02:51:47.095Z,5.82
2019-01-13T02:52:53.075Z,5.88
2019-01-13T02:53:59.388Z,5.73
2019-01-13T02:55:05.019Z,5.76
2019-01-13T02:56:11.353Z,5.68
2019-01-13T02:57:17.666Z,5.70
2019-01-13T02:58:23.999Z,5.71
2019-01-13T02:59:30.592Z,5.68
2019-01-13T03:00:37.550Z,5.89
2019-01-13T03:01:43.879Z,5.79
2019-01-13T03:02:50.181Z,5.74
2019-01-13T03:03:56.159Z,5.90
2019-01-13T03:05:02.520Z,5.98
2019-01-13T03:06:08.139Z,5.91
2019-01-13T03:07:14.458Z,5.94
2019-01-13T03:08:20.792Z,5.96
2019-01-13T03:09:27.099Z,5.75
2019-01-13T03:10:33.391Z,5.74
2019-01-13T03:11:39.765Z,5.95
2019-01-13T03:12:45.423Z,5.88
2019-01-13T03:13:51.730Z,6.02
2019-01-13T03:14:58.085Z,5.87
2019-01-13T03:16:04.072Z,5.84
2019-01-13T03:17:09.697Z,5.87
2019-01-13T03:18:16.085Z,5.77
2019-01-13T03:19:22.390Z,5.91
2019-01-13T03:20:28.437Z,5.79
2019-01-13T03:21:34.782Z,5.82
2019-01-13T03:22:40.744Z,5.78
2019-01-13T03:23:46.851Z,5.86
2019-01-13T03:24:53.218Z,5.92
2019-01-13T03:25:59.193Z,5.94
2019-01-13T03:27:04.837Z,5.80
2019-01-13T03:28:11.152Z,5.81
2019-01-13T03:29:17.458Z,5.76
2019-01-13T03:30:23.179Z,5.80
2019-01-13T03:31:29.475Z,5.74
2019-01-13T03:32:35.835Z,5.93
2019-01-13T03:33:42.156Z,6.05
2019-01-13T03:34:48.538Z,6.00
2019-01-13T03:35:54.868Z,6.02
2019-01-13T03:37:01.196Z,6.10
2019-01-13T03:38:07.557Z,6.06
2019-01-13T03:39:13.914Z,6.12
2019-01-13T03:40:19.590Z,6.17
2019-01-13T03:41:25.924Z,6.20
2019-01-13T03:42:32.262Z,6.21
2019-01-13T03:43:37.910Z,6.22
2019-01-13T03:44:44.237Z,6.13
2019-01-13T03:45:51.155Z,6.09
2019-01-13T03:46:58.039Z,6.15
2019-01-13T03:48:03.994Z,6.13
2019-01-13T03:49:10.351Z,6.02
2019-01-13T03:50:17.808Z,6.03
2019-01-13T03:51:23.802Z,6.00
2019-01-13T03:52:30.127Z,5.98
2019-01-13T03:53:36.477Z,5.87
2019-01-13T03:54:42.452Z,5.96
2019-01-13T03:55:48.429Z,5.95
2019-01-13T03:56:54.396Z,5.98
2019-01-13T03:58:00.725Z,5.95
2019-01-13T03:59:06.769Z,5.96
2019-01-13T04:00:13.165Z,6.03
2019-01-13T04:01:19.537Z,6.06
2019-01-13T04:02:25.832Z,6.19
2019-01-13T04:03:32.155Z,6.06
2019-01-13T04:04:38.459Z,6.02
2019-01-13T04:05:44.964Z,5.97
2019-01-13T04:06:51.451Z,6.01
2019-01-13T04:07:57.795Z,6.03
2019-01-13T04:09:03.797Z,5.98
2019-01-13T04:10:09.565Z,6.07
2019-01-13T04:11:15.874Z,6.08
2019-01-13T04:12:22.185Z,6.07
2019-01-13T04:13:28.500Z,5.97
2019-01-13T04:14:34.889Z,5.99
2019-01-13T04:15:41.435Z,6.07
2019-01-13T04:16:47.423Z,6.11
2019-01-13T04:17:53.341Z,5.98
2019-01-13T04:18:59.322Z,6.04
2019-01-13T04:20:04.947Z,6.07
2019-01-13T04:21:11.257Z,5.99
2019-01-13T04:22:17.570Z,6.02
2019-01-13T04:23:23.890Z,6.07
2019-01-13T04:24:30.229Z,6.08
2019-01-13T04:25:36.290Z,6.18
2019-01-13T04:26:42.636Z,6.11
2019-01-13T04:27:49.031Z,6.12
2019-01-13T04:28:55.983Z,6.10
2019-01-13T04:30:02.877Z,6.13
2019-01-13T04:31:09.796Z,6.06
2019-01-13T04:32:16.217Z,6.09
2019-01-13T04:33:22.214Z,6.01
2019-01-13T04:34:28.535Z,6.05
2019-01-13T04:35:34.942Z,6.02
2019-01-13T04:36:41.300Z,6.07
2019-01-13T04:37:47.641Z,6.18
2019-01-13T04:38:53.978Z,6.16
2019-01-13T04:40:00.331Z,6.18
2019-01-13T04:41:06.727Z,6.19
2019-01-13T04:42:13.020Z,6.23
2019-01-13T04:43:19.407Z,6.23
2019-01-13T04:44:25.738Z,6.27
2019-01-13T04:45:32.037Z,6.29
2019-01-13T04:46:38.706Z,6.24
2019-01-13T04:47:44.420Z,6.19
2019-01-13T04:48:50.809Z,6.10
2019-01-13T04:49:56.944Z,6.17
2019-01-13T04:51:03.303Z,6.19
2019-01-13T04:52:09.261Z,6.20
2019-01-13T04:53:15.564Z,6.17
2019-01-13T04:54:21.854Z,6.08
2019-01-13T04:55:27.777Z,6.11
2019-01-13T04:56:34.189Z,6.17
2019-01-13T04:57:40.206Z,6.09
2019-01-13T04:58:46.610Z,6.05
2019-01-13T04:59:53.071Z,6.23
2019-01-13T05:00:59.077Z,6.33
2019-01-13T05:02:05.655Z,6.32
2019-01-13T05:03:11.780Z,6.33
2019-01-13T05:04:18.087Z,6.28
2019-01-13T05:05:25.324Z,6.30
2019-01-13T05:06:31.650Z,6.32
2019-01-13T05:07:37.598Z,6.24
2019-01-13T05:08:43.885Z,6.31
2019-01-13T05:09:50.209Z,6.36
2019-01-13T05:10:56.529Z,6.35
2019-01-13T05:12:02.874Z,6.32
2019-01-13T05:13:09.172Z,6.31
2019-01-13T05:14:15.498Z,6.46
2019-01-13T05:15:21.477Z,6.38
2019-01-13T05:16:27.879Z,6.38
2019-01-13T05:17:34.159Z,6.41
2019-01-13T05:18:40.443Z,6.44
2019-01-13T05:19:46.833Z,6.45
2019-01-13T05:20:53.145Z,6.38
2019-01-13T05:21:59.495Z,6.31
2019-01-13T05:23:05.879Z,6.22
2019-01-13T05:24:12.231Z,6.30
2019-01-13T05:25:18.525Z,6.34
2019-01-13T05:26:24.972Z,6.35
2019-01-13T05:27:31.331Z,6.47
2019-01-13T05:28:37.719Z,6.33
2019-01-13T05:29:44.051Z,6.29
2019-01-13T05:30:50.337Z,6.34
2019-01-13T05:31:57.639Z,6.34
2019-01-13T05:33:03.975Z,6.30
2019-01-13T05:34:10.985Z,6.27
2019-01-13T05:35:18.404Z,6.36
2019-01-13T05:36:24.775Z,6.35
2019-01-13T05:37:31.120Z,6.43
2019-01-13T05:38:37.458Z,6.27
2019-01-13T05:39:43.881Z,6.29
2019-01-13T05:40:50.262Z,6.22
2019-01-13T05:41:56.589Z,6.13
2019-01-13T05:43:02.942Z,6.12
2019-01-13T05:44:09.269Z,6.24
2019-01-13T05:45:16.395Z,6.21
2019-01-13T05:46:22.763Z,6.20
2019-01-13T05:47:29.066Z,6.18
2019-01-13T05:48:35.436Z,6.11
2019-01-13T05:49:41.837Z,6.21
2019-01-13T05:50:48.187Z,6.32
2019-01-13T05:51:54.579Z,6.39
2019-01-13T05:53:01.371Z,6.36
2019-01-13T05:54:07.730Z,6.44
2019-01-13T05:55:14.938Z,6.37
2019-01-13T05:56:22.082Z,6.42
2019-01-13T05:57:28.849Z,6.47
2019-01-13T05:58:36.136Z,6.42
2019-01-13T05:59:42.469Z,6.38
2019-01-13T06:00:48.606Z,6.37
2019-01-13T06:01:55.015Z,6.35
2019-01-13T06:03:01.324Z,6.39
2019-01-13T06:04:07.267Z,6.39
2019-01-13T06:05:12.849Z,6.30
2019-01-13T06:06:20.556Z,6.33
2019-01-13T06:07:27.436Z,6.25
2019-01-13T06:08:33.899Z,6.43
2019-01-13T06:09:40.212Z,6.32
2019-01-13T06:10:46.521Z,6.26
2019-01-13T06:11:52.645Z,6.21
2019-01-13T06:12:58.976Z,6.31
2019-01-13T06:14:04.910Z,6.24
2019-01-13T06:15:10.523Z,6.22
2019-01-13T06:16:17.617Z,6.30
2019-01-13T06:17:24.203Z,6.36
2019-01-13T06:18:30.151Z,6.34
2019-01-13T06:19:36.464Z,6.42
2019-01-13T06:20:42.877Z,6.51
2019-01-13T06:21:50.476Z,6.48
2019-01-13T06:22:56.921Z,6.46
2019-01-13T06:24:03.383Z,6.38
2019-01-13T06:25:09.027Z,6.39
2019-01-13T06:26:15.347Z,6.33
2019-01-13T06:27:21.648Z,6.30
2019-01-13T06:28:27.943Z,6.24
2019-01-13T06:29:34.246Z,6.16
2019-01-13T06:30:40.553Z,6.11
2019-01-13T06:31:46.918Z,6.13
2019-01-13T06:32:53.299Z,6.27
2019-01-13T06:33:59.606Z,6.30
2019-01-13T06:35:05.243Z,6.19
2019-01-13T06:36:11.543Z,6.24
2019-01-13T06:37:17.866Z,6.24
2019-01-13T06:38:24.664Z,6.14
2019-01-13T06:39:31.030Z,6.13
2019-01-13T06:40:37.327Z,6.09
2019-01-13T06:41:43.746Z,6.11
2019-01-13T06:42:50.090Z,6.06
2019-01-13T06:43:56.419Z,6.25
2019-01-13T06:45:02.820Z,6.32
2019-01-13T06:46:09.211Z,6.18
2019-01-13T06:47:15.555Z,6.17
2019-01-13T06:48:21.916Z,6.37
2019-01-13T06:49:28.254Z,6.28
2019-01-13T06:50:34.626Z,6.36
2019-01-13T06:51:41.002Z,6.24
2019-01-13T06:52:47.392Z,6.28
2019-01-13T06:53:53.724Z,6.25
2019-01-13T06:55:00.165Z,6.08
2019-01-13T06:56:06.453Z,6.07
2019-01-13T06:57:12.800Z,6.08
2019-01-13T06:58:19.162Z,6.25
2019-01-13T06:59:26.104Z,6.22
2019-01-13T07:00:33.054Z,6.22
2019-01-13T07:01:39.394Z,6.14
2019-01-13T07:02:45.692Z,6.18
2019-01-13T07:03:52.102Z,6.18
2019-01-13T07:04:58.487Z,6.18
2019-01-13T07:06:04.104Z,6.21
2019-01-13T07:07:10.409Z,6.18
2019-01-13T07:08:16.784Z,6.23
2019-01-13T07:09:23.081Z,6.28
2019-01-13T07:10:29.479Z,6.14
2019-01-13T07:11:35.898Z,6.18
2019-01-13T07:12:41.535Z,6.11
2019-01-13T07:13:47.893Z,6.18
2019-01-13T07:14:54.540Z,6.25
2019-01-13T07:16:00.534Z,6.27
2019-01-13T07:17:07.873Z,6.25
2019-01-13T07:18:13.901Z,6.36
2019-01-13T07:19:20.250Z,6.35
2019-01-13T07:20:26.180Z,6.31
2019-01-13T07:21:32.573Z,6.42
2019-01-13T07:22:38.578Z,6.14
2019-01-13T07:23:44.973Z,6.16
2019-01-13T07:24:51.449Z,6.33
2019-01-13T07:25:57.869Z,6.27
2019-01-13T07:27:03.880Z,6.17
2019-01-13T07:28:10.227Z,6.18
2019-01-13T07:29:16.678Z,6.20
2019-01-13T07:30:22.428Z,6.09
2019-01-13T07:31:28.794Z,6.12
2019-01-13T07:32:35.157Z,6.16
2019-01-13T07:33:41.541Z,6.07
2019-01-13T07:34:47.862Z,6.04
2019-01-13T07:35:54.195Z,6.02
2019-01-13T07:37:00.550Z,6.10
2019-01-13T07:38:06.877Z,5.96
2019-01-13T07:39:13.261Z,6.09
2019-01-13T07:40:18.959Z,6.15
2019-01-13T07:41:25.361Z,5.98
2019-01-13T07:42:32.519Z,5.95
2019-01-13T07:43:39.078Z,6.06
2019-01-13T07:44:45.369Z,6.05
2019-01-13T07:45:52.262Z,5.97
2019-01-13T07:46:59.097Z,6.09
2019-01-13T07:48:07.150Z,6.14
2019-01-13T07:49:13.513Z,6.21
2019-01-13T07:50:19.101Z,6.24
2019-01-13T07:51:25.417Z,6.20
2019-01-13T07:52:31.796Z,5.97
2019-01-13T07:53:38.150Z,6.02
2019-01-13T07:54:44.545Z,5.98
2019-01-13T07:55:50.989Z,5.75
2019-01-13T07:56:57.338Z,5.70
2019-01-13T07:58:03.778Z,5.80
2019-01-13T07:59:10.076Z,5.88
2019-01-13T08:00:17.546Z,5.98
2019-01-13T08:01:23.916Z,5.95
2019-01-13T08:02:30.426Z,6.02
2019-01-13T08:03:36.902Z,5.86
2019-01-13T08:04:43.241Z,5.91
2019-01-13T08:05:49.602Z,5.95
2019-01-13T08:06:56.121Z,5.85
2019-01-13T08:08:02.386Z,5.82
2019-01-13T08:09:09.086Z,5.92
2019-01-13T08:10:15.319Z,6.02
2019-01-13T08:11:21.628Z,5.99
2019-01-13T08:12:28.594Z,5.98
2019-01-13T08:13:34.935Z,6.06
2019-01-13T08:14:41.264Z,5.98
2019-01-13T08:15:47.573Z,5.96
2019-01-13T08:16:53.919Z,6.07
2019-01-13T08:18:00.260Z,6.09
2019-01-13T08:19:06.630Z,6.09
2019-01-13T08:20:14.682Z,6.16
2019-01-13T08:21:20.990Z,6.18
2019-01-13T08:22:27.310Z,6.13
2019-01-13T08:23:33.620Z,6.11
2019-01-13T08:24:39.953Z,6.07
2019-01-13T08:25:46.265Z,6.12
2019-01-13T08:26:52.614Z,5.96
2019-01-13T08:27:58.989Z,5.89
2019-01-13T08:29:04.964Z,5.88
2019-01-13T08:30:14.313Z,5.90
2019-01-13T08:31:20.638Z,5.89
2019-01-13T08:32:26.984Z,5.92
2019-01-13T08:33:33.402Z,5.89
2019-01-13T08:34:39.746Z,5.69
2019-01-13T08:35:46.093Z,5.85
2019-01-13T08:36:52.377Z,5.86
2019-01-13T08:37:58.713Z,5.88
2019-01-13T08:39:04.122Z,5.89
2019-01-13T08:40:09.761Z,5.89
2019-01-13T08:41:15.763Z,5.85
2019-01-13T08:42:22.133Z,5.77
2019-01-13T08:43:28.488Z,5.82
2019-01-13T08:44:34.822Z,5.91
2019-01-13T08:45:42.123Z,5.88
2019-01-13T08:46:47.531Z,5.77
2019-01-13T08:47:53.919Z,5.83
2019-01-13T08:49:00.256Z,5.92
2019-01-13T08:50:05.930Z,5.89
2019-01-13T08:51:13.022Z,5.72
2019-01-13T08:52:19.686Z,5.71
2019-01-13T08:53:25.716Z,5.80
2019-01-13T08:54:32.093Z,5.87
2019-01-13T08:55:38.433Z,5.72
2019-01-13T08:56:44.834Z,5.84
2019-01-13T08:57:50.851Z,5.87
2019-01-13T08:58:57.209Z,5.86
2019-01-13T09:00:02.910Z,5.88
2019-01-13T09:01:09.306Z,5.85
2019-01-13T09:02:15.710Z,5.91
2019-01-13T09:03:22.100Z,5.82
2019-01-13T09:04:28.440Z,5.77
2019-01-13T09:05:34.496Z,5.89
2019-01-13T09:06:40.855Z,5.90
2019-01-13T09:07:47.331Z,5.92
2019-01-13T09:08:53.746Z,5.86
2019-01-13T09:10:00.098Z,5.68
2019-01-13T09:11:06.137Z,5.69
2019-01-13T09:12:13.060Z,5.79
2019-01-13T09:13:19.829Z,5.85
2019-01-13T09:14:26.247Z,5.79
2019-01-13T09:15:32.256Z,5.79
2019-01-13T09:16:38.659Z,5.71
2019-01-13T09:17:44.685Z,5.79
2019-01-13T09:18:51.073Z,5.83
2019-01-13T09:19:57.448Z,5.89
2019-01-13T09:21:03.831Z,5.84
2019-01-13T09:22:09.851Z,5.97
2019-01-13T09:23:15.895Z,5.89
2019-01-13T09:24:21.901Z,5.98
2019-01-13T09:25:27.920Z,6.01
2019-01-13T09:26:34.353Z,6.03
2019-01-13T09:27:40.723Z,6.00
2019-01-13T09:28:46.747Z,5.94
2019-01-13T09:29:53.104Z,5.90
2019-01-13T09:30:59.412Z,5.98
2019-01-13T09:32:05.493Z,6.02
2019-01-13T09:33:12.161Z,6.11
2019-01-13T09:34:18.529Z,6.15
2019-01-13T09:35:24.215Z,6.19
2019-01-13T09:36:30.517Z,6.17
2019-01-13T09:37:36.602Z,6.16
2019-01-13T09:38:42.646Z,5.99
2019-01-13T09:39:48.747Z,5.97
2019-01-13T09:40:55.177Z,5.97
2019-01-13T09:42:01.577Z,5.98
2019-01-13T09:43:07.639Z,6.12
2019-01-13T09:44:14.026Z,6.22
2019-01-13T09:45:20.385Z,6.16
2019-01-13T09:46:26.751Z,6.14
2019-01-13T09:47:33.182Z,6.11
2019-01-13T09:48:39.580Z,6.16
2019-01-13T09:49:49.861Z,6.18
2019-01-13T09:50:52.087Z,6.20
2019-01-13T09:51:58.722Z,6.22
2019-01-13T09:53:04.669Z,6.23
2019-01-13T09:54:11.079Z,6.20
2019-01-13T09:55:16.940Z,6.10
2019-01-13T09:56:24.116Z,6.06
2019-01-13T09:57:31.677Z,6.09
2019-01-13T09:58:38.198Z,5.99
2019-01-13T09:59:44.313Z,6.05
2019-01-13T10:00:50.680Z,6.09
2019-01-13T10:01:57.209Z,6.18
2019-01-13T10:03:03.807Z,6.08
2019-01-13T10:04:10.699Z,6.22
2019-01-13T10:05:16.773Z,6.14
2019-01-13T10:06:28.269Z,6.03
2019-01-13T10:07:35.937Z,6.11
2019-01-13T10:08:42.326Z,6.16
2019-01-13T10:09:48.715Z,6.20
2019-01-13T10:10:55.125Z,6.28
2019-01-13T10:12:01.489Z,6.24
2019-01-13T10:13:07.527Z,6.28
2019-01-13T10:14:13.940Z,6.21
2019-01-13T10:15:21.299Z,6.21
2019-01-13T10:16:27.391Z,6.29
2019-01-13T10:17:33.886Z,6.36
2019-01-13T10:18:40.456Z,6.36
2019-01-13T10:19:46.843Z,6.35
2019-01-13T10:20:53.280Z,6.27
2019-01-13T10:21:59.323Z,6.24
2019-01-13T10:23:05.502Z,6.39
2019-01-13T10:24:11.949Z,6.35
2019-01-13T10:25:18.061Z,6.29
2019-01-13T10:26:24.354Z,6.36
2019-01-13T10:27:30.406Z,6.21
2019-01-13T10:28:36.854Z,6.32
2019-01-13T10:29:43.274Z,6.35
2019-01-13T10:30:49.624Z,6.34
2019-01-13T10:31:56.259Z,6.40
2019-01-13T10:33:02.107Z,6.33
2019-01-13T10:34:08.162Z,6.26
2019-01-13T10:35:14.218Z,6.42
2019-01-13T10:36:20.392Z,6.32
2019-01-13T10:37:26.819Z,6.42
2019-01-13T10:38:33.973Z,6.42
2019-01-13T10:39:40.745Z,6.49
2019-01-13T10:40:46.403Z,6.53
2019-01-13T10:41:52.264Z,6.55
2019-01-13T10:42:58.029Z,6.53
2019-01-13T10:44:03.718Z,6.59
2019-01-13T10:45:09.407Z,6.60
2019-01-13T10:46:15.770Z,6.66
2019-01-13T10:47:22.206Z,6.65
2019-01-13T10:48:28.270Z,6.62
2019-01-13T10:49:34.299Z,6.62
2019-01-13T10:50:40.314Z,6.59
2019-01-13T10:51:46.350Z,6.56
2019-01-13T10:52:52.305Z,6.53
2019-01-13T10:53:58.760Z,6.60
2019-01-13T10:55:04.493Z,6.51
2019-01-13T10:56:10.193Z,6.57
2019-01-13T10:57:16.641Z,6.59
2019-01-13T10:58:23.048Z,6.57
2019-01-13T10:59:29.459Z,6.63
2019-01-13T11:00:35.440Z,6.71
2019-01-13T11:01:41.805Z,6.71
2019-01-13T11:02:47.834Z,6.71
2019-01-13T11:03:54.192Z,6.71
2019-01-13T11:05:00.623Z,6.75
2019-01-13T11:06:06.989Z,6.80
2019-01-13T11:07:13.354Z,6.75
2019-01-13T11:08:19.742Z,6.67
2019-01-13T11:09:26.179Z,6.68
2019-01-13T11:10:32.202Z,6.74
2019-01-13T11:11:38.590Z,6.65
2019-01-13T11:12:44.621Z,6.70
2019-01-13T11:13:51.028Z,6.73
2019-01-13T11:14:57.391Z,6.69
2019-01-13T11:16:03.787Z,6.67
2019-01-13T11:17:10.165Z,6.62
2019-01-13T11:18:16.565Z,6.63
2019-01-13T11:19:22.934Z,6.73
2019-01-13T11:20:29.596Z,6.76
2019-01-13T11:21:35.262Z,6.69
2019-01-13T11:22:41.250Z,6.73
2019-01-13T11:23:47.648Z,6.81
2019-01-13T11:24:53.945Z,6.82
2019-01-13T11:26:01.194Z,6.88
2019-01-13T11:27:07.603Z,6.86
2019-01-13T11:28:13.984Z,6.85
2019-01-13T11:29:20.339Z,6.81
2019-01-13T11:30:25.971Z,6.90
2019-01-13T11:31:32.459Z,6.92
2019-01-13T11:32:38.830Z,6.81
2019-01-13T11:33:45.222Z,6.84
2019-01-13T11:34:51.578Z,6.89
2019-01-13T11:35:57.874Z,6.93
2019-01-13T11:37:04.235Z,6.92
2019-01-13T11:38:09.894Z,6.92
2019-01-13T11:39:16.313Z,6.99
2019-01-13T11:40:21.960Z,7.03
2019-01-13T11:41:28.289Z,6.98
2019-01-13T11:42:34.595Z,7.05
2019-01-13T11:43:40.913Z,7.13
2019-01-13T11:44:48.206Z,7.16
2019-01-13T11:45:54.530Z,7.22
2019-01-13T11:47:00.865Z,7.10
2019-01-13T11:48:06.878Z,7.02
2019-01-13T11:49:13.268Z,7.05
2019-01-13T11:50:19.680Z,7.05
2019-01-13T11:51:26.082Z,7.16
2019-01-13T11:52:32.431Z,7.15
2019-01-13T11:53:38.426Z,7.20
2019-01-13T11:54:44.854Z,7.20
2019-01-13T11:55:51.298Z,7.15
2019-01-13T11:56:57.600Z,7.18
2019-01-13T11:58:03.223Z,7.24
2019-01-13T11:59:09.565Z,7.27
2019-01-13T12:00:18.978Z,7.22
2019-01-13T12:01:24.578Z,7.20
2019-01-13T12:02:32.709Z,7.33
2019-01-13T12:03:37.203Z,7.42
2019-01-13T12:04:43.292Z,7.39
2019-01-13T12:05:50.207Z,7.39
2019-01-13T12:06:57.021Z,7.44
2019-01-13T12:08:05.614Z,7.38
2019-01-13T12:09:12.560Z,7.37
2019-01-13T12:10:18.220Z,7.37
2019-01-13T12:11:24.778Z,7.36
2019-01-13T12:12:31.051Z,7.34
2019-01-13T12:13:37.365Z,7.31
2019-01-13T12:14:43.738Z,7.30
2019-01-13T12:15:50.436Z,7.35
2019-01-13T12:16:56.752Z,7.37
2019-01-13T12:18:03.102Z,7.36
2019-01-13T12:19:09.439Z,7.37
2019-01-13T12:20:15.050Z,7.34
2019-01-13T12:21:21.415Z,7.42
2019-01-13T12:22:27.853Z,7.40
2019-01-13T12:23:34.243Z,7.39
2019-01-13T12:24:40.620Z,7.38
2019-01-13T12:25:52.574Z,7.50
2019-01-13T12:26:53.466Z,7.51
2019-01-13T12:27:59.818Z,7.42
2019-01-13T12:29:06.867Z,7.41
2019-01-13T12:30:13.922Z,7.48
2019-01-13T12:31:20.765Z,7.53
2019-01-13T12:32:28.169Z,7.47
2019-01-13T12:33:34.561Z,7.46
2019-01-13T12:34:40.917Z,7.52
2019-01-13T12:35:46.905Z,7.58
2019-01-13T12:36:53.323Z,7.62
2019-01-13T12:37:59.679Z,7.62
2019-01-13T12:39:05.115Z,7.52
2019-01-13T12:40:11.536Z,7.55
2019-01-13T12:41:17.510Z,7.54
2019-01-13T12:42:23.882Z,7.59
2019-01-13T12:43:30.005Z,7.57
2019-01-13T12:44:35.979Z,7.47
2019-01-13T12:45:42.265Z,7.49
2019-01-13T12:46:48.754Z,7.54
2019-01-13T12:47:54.767Z,7.57
2019-01-13T12:49:01.075Z,7.54
2019-01-13T12:50:09.513Z,7.62
2019-01-13T12:51:16.305Z,7.68
2019-01-13T12:52:22.721Z,7.69
2019-01-13T12:53:29.102Z,7.73
2019-01-13T12:54:35.131Z,7.79
2019-01-13T12:55:41.491Z,7.77
2019-01-13T12:56:47.777Z,7.77
2019-01-13T12:57:54.190Z,7.76
2019-01-13T12:59:00.573Z,7.79
2019-01-13T13:00:06.065Z,7.84
2019-01-13T13:01:12.421Z,7.88
2019-01-13T13:02:18.759Z,7.83
2019-01-13T13:03:31.399Z,7.81
2019-01-13T13:04:31.524Z,7.88
2019-01-13T13:05:37.849Z,7.91
2019-01-13T13:06:44.208Z,7.87
2019-01-13T13:07:50.727Z,7.89
2019-01-13T13:08:57.072Z,7.95
2019-01-13T13:10:03.137Z,8.08
2019-01-13T13:11:10.211Z,7.98
2019-01-13T13:12:17.012Z,8.06
2019-01-13T13:13:23.309Z,7.96
2019-01-13T13:14:29.647Z,7.92
2019-01-13T13:15:35.281Z,7.94
2019-01-13T13:16:41.737Z,7.90
2019-01-13T13:17:48.101Z,7.92
2019-01-13T13:18:55.153Z,7.97
2019-01-13T13:20:01.596Z,7.91
2019-01-13T13:21:07.939Z,7.99
2019-01-13T13:22:14.394Z,8.01
2019-01-13T13:23:20.738Z,8.02
2019-01-13T13:24:27.256Z,7.96
2019-01-13T13:25:33.265Z,8.01
2019-01-13T13:26:39.673Z,7.99
2019-01-13T13:27:45.312Z,8.03
2019-01-13T13:28:51.624Z,7.88
2019-01-13T13:29:57.780Z,7.86
2019-01-13T13:31:04.109Z,7.87
2019-01-13T13:32:11.111Z,7.86
2019-01-13T13:33:17.504Z,7.88
2019-01-13T13:34:24.148Z,7.95
2019-01-13T13:35:30.511Z,7.89
2019-01-13T13:36:36.655Z,7.89
2019-01-13T13:37:44.122Z,7.86
2019-01-13T13:38:51.351Z,7.83
2019-01-13T13:39:57.868Z,7.84
2019-01-13T13:41:04.263Z,7.85
2019-01-13T13:42:10.700Z,7.83
2019-01-13T13:43:17.196Z,7.85
2019-01-13T13:44:23.755Z,7.90
2019-01-13T13:45:30.141Z,7.89
2019-01-13T13:46:36.588Z,7.79
2019-01-13T13:47:42.693Z,7.88
2019-01-13T13:48:49.097Z,7.86
2019-01-13T13:49:55.595Z,7.86
2019-01-13T13:51:02.043Z,7.88
2019-01-13T13:52:08.493Z,7.78
2019-01-13T13:53:14.976Z,7.85
2019-01-13T13:54:21.516Z,7.83
2019-01-13T13:55:27.233Z,7.82
2019-01-13T13:56:33.538Z,7.77
2019-01-13T13:57:39.878Z,7.92
2019-01-13T13:58:46.239Z,7.88
2019-01-13T13:59:52.564Z,7.92
2019-01-13T14:00:58.577Z,8.05
2019-01-13T14:02:04.298Z,8.04
2019-01-13T14:03:10.689Z,8.02
2019-01-13T14:04:16.654Z,8.06
2019-01-13T14:05:22.341Z,8.04
2019-01-13T14:06:28.372Z,8.05
2019-01-13T14:07:34.679Z,8.00
2019-01-13T14:08:41.154Z,8.00
2019-01-13T14:09:47.527Z,8.07
2019-01-13T14:10:53.902Z,8.02
2019-01-13T14:12:00.228Z,8.03
2019-01-13T14:13:05.931Z,8.02
2019-01-13T14:14:12.326Z,8.07
2019-01-13T14:15:18.740Z,8.10
2019-01-13T14:16:25.094Z,8.04
2019-01-13T14:17:31.415Z,8.10
2019-01-13T14:18:38.271Z,8.01
2019-01-13T14:19:44.907Z,8.03
2019-01-13T14:20:51.249Z,7.95
2019-01-13T14:21:57.547Z,8.12
2019-01-13T14:23:03.560Z,8.14
2019-01-13T14:24:09.968Z,8.02
2019-01-13T14:25:15.661Z,8.08
2019-01-13T14:26:22.030Z,8.08
2019-01-13T14:27:28.034Z,8.07
2019-01-13T14:28:34.409Z,8.14
2019-01-13T14:29:40.821Z,8.08
2019-01-13T14:30:46.938Z,8.15
2019-01-13T14:31:53.262Z,8.20
2019-01-13T14:32:59.281Z,8.19
2019-01-13T14:34:04.902Z,8.09
2019-01-13T14:35:11.157Z,8.12
2019-01-13T14:36:17.534Z,8.07
2019-01-13T14:37:23.891Z,8.16
2019-01-13T14:38:30.213Z,8.23
2019-01-13T14:39:36.681Z,8.13
2019-01-13T14:40:43.096Z,8.08
2019-01-13T14:41:49.424Z,7.99
2019-01-13T14:42:55.706Z,8.08